Time;durP1;ratioP1;P1;durP2;ratioP2;P2;SDS_P1;SDS_P2;PMS_P1;PMS_P2;Temp;Humidity;BMP_temperature;BMP_pressure;BME280_temperature;BME280_humidity;BME280_pressure;Samples;Min_cycle;Max_cycle;Signal;HPM_P1;HPM_P2
2023/04/14 00:02:10;;;;;;;7.67;3.03;;;;;;;-145.18;100.00;46633.06;6182132;23;20496;-71
2023/04/14 00:04:36;;;;;;;9.20;3.30;;;;;;;-145.18;100.00;46640.88;6179619;23;20443;-71
2023/04/14 00:07:01;;;;;;;13.07;3.07;;;;;;;-145.18;100.00;46636.94;6181920;23;20009;-71
2023/04/14 00:09:27;;;;;;;7.87;2.80;;;;;;;-145.18;100.00;46640.88;6182038;23;20091;-71
2023/04/14 00:11:52;;;;;;;5.73;2.97;;;;;;;-145.18;100.00;46635.00;6182063;23;20019;-71
2023/04/14 00:14:17;;;;;;;7.93;3.53;;;;;;;-145.18;100.00;46640.88;6155981;23;20091;-71
2023/04/14 00:16:45;;;;;;;9.10;3.10;;;;;;;-145.18;100.00;46642.81;6181996;23;20470;-71
2023/04/14 00:19:10;;;;;;;8.80;3.40;;;;;;;-145.18;100.00;46654.53;6182332;23;20005;-71
2023/04/14 00:21:35;;;;;;;6.93;2.90;;;;;;;-145.18;100.00;46640.88;6181745;23;20348;-71
2023/04/14 00:24:01;;;;;;;8.23;2.83;;;;;;;-145.18;100.00;46646.72;6156414;23;20036;-71
2023/04/14 00:26:26;;;;;;;9.40;3.17;;;;;;;-145.18;100.00;46646.72;6182085;23;20078;-71
2023/04/14 00:28:52;;;;;;;10.77;3.23;;;;;;;-145.18;100.00;46631.09;6178535;23;20084;-71
2023/04/14 00:31:17;;;;;;;16.33;4.00;;;;;;;-145.18;100.00;46627.19;6182424;23;20013;-71
2023/04/14 00:33:42;;;;;;;5.80;2.87;;;;;;;-145.18;100.00;46640.88;6181726;23;20114;-71
2023/04/14 00:36:08;;;;;;;9.43;2.73;;;;;;;-145.18;100.00;46633.06;6182386;23;20005;-71
2023/04/14 00:38:33;;;;;;;9.40;3.17;;;;;;;-145.18;100.00;46640.88;6155208;23;20024;-71
2023/04/14 00:40:58;;;;;;;11.63;3.23;;;;;;;-145.18;100.00;46633.06;6182123;23;20009;-71
2023/04/14 00:43:24;;;;;;;9.63;2.73;;;;;;;-145.18;100.00;46636.94;6181918;23;20328;-71
2023/04/14 00:45:51;;;;;;;8.40;2.90;;;;;;;-145.18;100.00;46633.06;6182060;23;20005;-71
2023/04/14 00:48:17;;;;;;;9.10;2.90;;;;;;;-145.18;100.00;46631.09;6181835;23;20009;-71
2023/04/14 00:50:43;;;;;;;7.63;2.97;;;;;;;-145.18;100.00;46642.81;6155492;23;20231;-71
2023/04/14 00:53:11;;;;;;;9.20;2.60;;;;;;;-145.18;100.00;46636.94;6181845;23;20235;-71
2023/04/14 00:55:38;;;;;;;12.07;2.97;;;;;;;-145.18;100.00;46644.78;6181860;23;20001;-71
2023/04/14 00:58:03;;;;;;;15.43;3.53;;;;;;;-145.18;100.00;46635.00;6155858;23;20259;-71
2023/04/14 01:00:29;;;;;;;11.80;3.13;;;;;;;-145.18;100.00;46638.91;6181837;23;20301;-71
2023/04/14 01:02:55;;;;;;;7.97;3.10;;;;;;;-145.18;100.00;46623.28;6176763;23;20005;-71
2023/04/14 01:05:20;;;;;;;9.10;2.60;;;;;;;-145.18;100.00;46631.09;6181985;23;20347;-71
2023/04/14 01:07:47;;;;;;;11.87;3.07;;;;;;;-145.18;100.00;46623.28;6181500;23;20080;-71
2023/04/14 01:10:14;;;;;;;7.73;3.50;;;;;;;-145.18;100.00;46627.19;6181938;23;20092;-71
2023/04/14 01:12:58;;;;;;;11.70;3.13;;;;;;;-145.18;100.00;46636.94;6181660;23;20234;-71
2023/04/14 01:15:47;;;;;;;9.00;3.17;;;;;;;-145.18;100.00;46621.31;6181939;23;20227;-71
2023/04/14 01:18:18;;;;;;;7.13;2.57;;;;;;;-145.18;100.00;46633.06;6181707;23;20560;-71
2023/04/14 01:20:49;;;;;;;13.60;3.37;;;;;;;-145.18;100.00;46636.94;6181361;23;20330;-71
2023/04/14 01:23:34;;;;;;;8.80;2.77;;;;;;;-145.18;100.00;46644.78;6182095;23;20219;-70
2023/04/14 01:26:20;;;;;;;9.50;2.80;;;;;;;-145.18;100.00;46635.00;6182129;23;20564;-70
2023/04/14 01:28:53;;;;;;;;;;;;;;;-145.18;100.00;46646.72;6182170;23;20005;-71
2023/04/14 01:31:46;;;;;;;9.63;2.77;;;;;;;-145.18;100.00;46640.88;6182500;23;19908;-71
2023/04/14 01:34:14;;;;;;;9.67;3.07;;;;;;;-145.18;100.00;46640.88;6182260;23;20231;-71
2023/04/14 01:36:42;;;;;;;11.90;3.30;;;;;;;-145.18;100.00;46646.72;6181522;23;20251;-71
2023/04/14 01:39:13;;;;;;;7.70;2.50;;;;;;;-145.18;100.00;46646.72;6181997;23;20226;-71
2023/04/14 01:41:43;;;;;;;9.77;2.90;;;;;;;-145.18;100.00;46652.59;6181880;23;20239;-70
2023/04/14 01:44:09;;;;;;;7.70;3.23;;;;;;;-145.18;100.00;46648.69;6182328;23;20223;-72
2023/04/14 01:46:36;;;;;;;7.67;2.80;;;;;;;-145.18;100.00;46656.50;6181399;23;20310;-71
2023/04/14 01:49:02;;;;;;;12.03;3.23;;;;;;;-145.18;100.00;46648.69;6181752;23;20235;-70
2023/04/14 01:51:29;;;;;;;9.60;3.47;;;;;;;-145.18;100.00;46642.81;6182185;23;20239;-70
2023/04/14 01:53:57;;;;;;;7.73;3.07;;;;;;;-145.18;100.00;46629.13;6155203;23;20309;-73
2023/04/14 01:56:24;;;;;;;11.90;3.57;;;;;;;-145.18;100.00;46642.81;6181874;23;20231;-73
2023/04/14 01:58:52;;;;;;;5.73;3.07;;;;;;;-145.18;100.00;46629.13;6181548;23;20269;-71
2023/04/14 02:03:48;;;;;;;8.60;3.67;;;;;;;-145.18;100.00;46635.00;6149549;23;20275;-72
2023/04/14 02:06:16;;;;;;;9.27;3.50;;;;;;;-145.18;100.00;46629.13;6152490;23;20298;-72
2023/04/14 02:08:42;;;;;;;13.63;3.87;;;;;;;-145.18;100.00;46636.94;6151807;23;20231;-72
2023/04/14 02:11:11;;;;;;;7.67;3.47;;;;;;;-145.18;100.00;46627.19;6152449;23;20242;-72
2023/04/14 02:13:40;;;;;;;9.10;3.27;;;;;;;-145.18;100.00;46633.06;6151945;23;20231;-72
2023/04/14 02:16:08;;;;;;;8.23;3.83;;;;;;;-145.18;100.00;46635.00;6152450;23;20274;-72
2023/04/14 02:18:35;;;;;;;8.97;3.43;;;;;;;-145.18;100.00;46633.06;6151980;23;20263;-72
2023/04/14 02:21:02;;;;;;;8.50;3.03;;;;;;;-145.18;100.00;46638.91;6152354;23;20254;-72
2023/04/14 02:23:28;;;;;;;10.33;3.77;;;;;;;-145.18;100.00;46631.09;6152082;23;20290;-72
2023/04/14 02:26:03;;;;;;;8.53;3.43;;;;;;;-145.18;100.00;46635.00;6151915;23;20236;-71
2023/04/14 02:28:32;;;;;;;9.85;3.55;;;;;;;-145.18;100.00;46635.00;6152013;23;20013;-72
2023/04/14 02:31:04;;;;;;;9.63;3.00;;;;;;;-145.18;100.00;46627.19;6152005;23;20012;-71
2023/04/14 02:33:33;;;;;;;10.93;3.97;;;;;;;-145.18;100.00;46629.13;6153178;23;20232;-72
2023/04/14 02:36:03;;;;;;;18.53;4.00;;;;;;;-145.18;100.00;46636.94;6153788;23;20238;-72
2023/04/14 02:38:32;;;;;;;7.57;3.00;;;;;;;-145.18;100.00;46627.19;6153785;23;20677;-72
2023/04/14 02:41:01;;;;;;;16.77;3.70;;;;;;;-145.18;100.00;46631.09;6153532;23;20711;-72
2023/04/14 02:43:32;;;;;;;10.43;3.30;;;;;;;-145.18;100.00;46633.06;6153895;23;20219;-72
2023/04/14 02:46:01;;;;;;;6.57;3.33;;;;;;;-145.18;100.00;46642.81;6153611;23;20228;-72
2023/04/14 02:48:28;;;;;;;10.70;3.77;;;;;;;-145.18;100.00;46636.94;6153773;23;20220;-72
2023/04/14 02:50:55;;;;;;;9.93;3.73;;;;;;;-145.18;100.00;46633.06;6153702;23;20765;-72
2023/04/14 02:53:22;;;;;;;15.10;3.57;;;;;;;-145.18;100.00;46638.91;6153568;23;20724;-71
2023/04/14 02:55:50;;;;;;;10.13;3.63;;;;;;;-145.18;100.00;46636.94;6153843;23;20222;-72
2023/04/14 02:58:16;;;;;;;10.73;3.83;;;;;;;-145.18;100.00;46633.06;6153501;23;20231;-71
2023/04/14 03:00:42;;;;;;;9.17;3.70;;;;;;;-145.18;100.00;46629.13;6151760;23;20310;-72
2023/04/14 03:03:10;;;;;;;9.43;4.10;;;;;;;-145.18;100.00;46633.06;6153454;23;20251;-72
2023/04/14 03:05:37;;;;;;;7.53;3.23;;;;;;;-145.18;100.00;46623.28;6153190;23;20258;-72
2023/04/14 03:08:04;;;;;;;8.73;3.67;;;;;;;-145.18;100.00;46631.09;6153563;23;20243;-72
2023/04/14 03:10:31;;;;;;;9.60;3.27;;;;;;;-145.18;100.00;46638.91;6152928;23;20319;-72
2023/04/14 03:12:59;;;;;;;9.10;3.47;;;;;;;-145.18;100.00;46629.13;6152571;23;20243;-72
2023/04/14 03:15:25;;;;;;;10.00;3.63;;;;;;;-145.18;100.00;46623.28;6153775;23;20236;-72
2023/04/14 03:17:56;;;;;;;8.53;3.30;;;;;;;-145.18;100.00;46627.19;6152928;23;20266;-72
2023/04/14 03:20:22;;;;;;;12.53;3.43;;;;;;;-145.18;100.00;46625.22;6153875;23;20262;-72
2023/04/14 03:23:03;;;;;;;9.83;3.07;;;;;;;-145.18;100.00;46625.22;6153390;23;20255;-72
2023/04/14 03:25:31;;;;;;;7.87;3.00;;;;;;;-145.18;100.00;46625.22;6153943;23;20235;-72
2023/04/14 03:28:00;;;;;;;9.87;3.47;;;;;;;-145.18;100.00;46627.19;6153034;23;20228;-72
2023/04/14 03:30:29;;;;;;;10.63;3.00;;;;;;;-145.18;100.00;46658.44;6153714;23;20254;-72
2023/04/14 03:32:59;;;;;;;7.40;3.30;;;;;;;-145.18;100.00;46658.44;6152885;23;20235;-71
2023/04/14 03:35:26;;;;;;;7.60;3.20;;;;;;;-145.18;100.00;46652.59;6153824;23;20630;-72
2023/04/14 03:37:58;;;;;;;6.47;3.10;;;;;;;-145.18;100.00;46652.59;6153175;23;20236;-72
2023/04/14 03:40:29;;;;;;;9.97;3.20;;;;;;;-145.18;100.00;46660.41;6154025;23;20309;-72
2023/04/14 03:42:57;;;;;;;8.03;3.10;;;;;;;-145.18;100.00;46652.59;6153014;23;20270;-72
2023/04/14 03:45:23;;;;;;;8.63;3.23;;;;;;;-145.18;100.00;46654.53;6153630;23;20227;-72
2023/04/14 03:47:49;;;;;;;7.33;2.90;;;;;;;-145.18;100.00;46640.88;6152942;23;20270;-71
2023/04/14 03:50:17;;;;;;;8.13;3.10;;;;;;;-145.18;100.00;46660.41;6153647;23;20240;-72
2023/04/14 03:52:46;;;;;;;10.47;3.87;;;;;;;-145.18;100.00;46658.44;6153017;23;20319;-71
2023/04/14 03:55:16;;;;;;;10.57;3.77;;;;;;;-145.18;100.00;46658.44;6151769;23;20611;-71
2023/04/14 03:57:42;;;;;;;10.10;4.03;;;;;;;-145.18;100.00;46660.41;6152739;23;20236;-71
2023/04/14 04:00:09;;;;;;;9.40;3.70;;;;;;;-145.18;100.00;46635.00;6153484;23;20251;-72
2023/04/14 04:02:36;;;;;;;8.43;3.60;;;;;;;-145.18;100.00;46636.94;6152386;23;20279;-71
2023/04/14 04:05:03;;;;;;;6.93;3.57;;;;;;;-145.18;100.00;46636.94;6152963;23;20323;-72
2023/04/14 04:07:31;;;;;;;9.07;3.50;;;;;;;-145.18;100.00;46636.94;6152925;23;20254;-72
2023/04/14 04:09:57;;;;;;;12.53;3.43;;;;;;;-145.18;100.00;46636.94;6153078;23;20232;-71
2023/04/14 04:12:24;;;;;;;8.53;3.30;;;;;;;-145.18;100.00;46638.91;6152989;23;20676;-72
2023/04/14 04:14:50;;;;;;;9.50;3.37;;;;;;;-145.18;100.00;46635.00;6153050;23;20243;-71
2023/04/14 04:17:18;;;;;;;10.87;3.70;;;;;;;-145.18;100.00;46636.94;6152610;23;20236;-72
2023/04/14 04:19:45;;;;;;;11.63;3.43;;;;;;;-145.18;100.00;46633.06;6152746;23;20016;-72
2023/04/14 04:22:16;;;;;;;15.23;3.60;;;;;;;-145.18;100.00;46629.13;6153002;23;20318;-72
2023/04/14 04:24:41;;;;;;;6.90;3.40;;;;;;;-145.18;100.00;46635.00;6153311;23;20589;-72
2023/04/14 04:27:08;;;;;;;10.37;3.47;;;;;;;-145.18;100.00;46625.22;6153096;23;20232;-72
2023/04/14 04:29:34;;;;;;;12.70;3.27;;;;;;;-145.18;100.00;46629.13;6150992;23;20014;-71
2023/04/14 04:31:59;;;;;;;15.03;3.43;;;;;;;-145.18;100.00;46627.19;6152849;23;20239;-72
2023/04/14 04:34:28;;;;;;;9.63;3.23;;;;;;;-145.18;100.00;46633.06;6153005;23;20431;-74
2023/04/14 04:36:54;;;;;;;14.27;3.53;;;;;;;-145.18;100.00;46627.19;6152490;23;20390;-72
2023/04/14 04:39:19;;;;;;;14.07;3.50;;;;;;;-145.18;100.00;46623.28;6152786;23;20311;-72
2023/04/14 04:41:45;;;;;;;11.83;3.50;;;;;;;-145.18;100.00;46625.22;6152664;23;20081;-72
2023/04/14 04:44:10;;;;;;;7.17;3.53;;;;;;;-145.18;100.00;46629.13;6152901;23;20017;-72
2023/04/14 04:46:52;;;;;;;9.20;4.10;;;;;;;-145.18;100.00;46621.31;6151404;23;20435;-72
2023/04/14 04:49:18;;;;;;;18.37;3.87;;;;;;;-145.18;100.00;46629.13;6152184;23;20009;-72
2023/04/14 04:51:43;;;;;;;11.57;3.60;;;;;;;-145.18;100.00;46629.13;6151813;23;20549;-71
2023/04/14 04:54:09;;;;;;;7.30;3.27;;;;;;;-145.18;100.00;46631.09;6150008;23;20376;-71
2023/04/14 04:56:34;;;;;;;17.20;3.37;;;;;;;-145.18;100.00;46627.19;6152467;23;20317;-72
2023/04/14 04:59:00;;;;;;;7.50;3.43;;;;;;;-145.18;100.00;46629.13;6152243;23;20469;-72
2023/04/14 05:01:26;;;;;;;9.20;3.43;;;;;;;-145.18;100.00;46629.13;6152647;23;20005;-72
2023/04/14 05:03:51;;;;;;;12.23;3.83;;;;;;;-145.18;100.00;46625.22;6151944;23;20398;-72
2023/04/14 05:06:18;;;;;;;13.80;4.17;;;;;;;-145.18;100.00;46625.22;6152677;23;20021;-71
2023/04/14 05:08:43;;;;;;;10.77;3.67;;;;;;;-145.18;100.00;46625.22;6152080;23;20291;-72
2023/04/14 05:11:08;;;;;;;12.27;3.83;;;;;;;-145.18;100.00;46623.28;6152799;23;20017;-72
2023/04/14 05:13:34;;;;;;;15.37;4.20;;;;;;;-145.18;100.00;46627.19;6152146;23;20622;-72
2023/04/14 05:16:08;;;;;;;14.80;4.20;;;;;;;-145.18;100.00;46621.31;6152230;23;20006;-71
2023/04/14 05:18:34;;;;;;;14.67;4.10;;;;;;;-145.18;100.00;46621.31;6151578;23;20124;-72
2023/04/14 05:21:07;;;;;;;11.37;4.00;;;;;;;-145.18;100.00;46631.09;6149471;23;20728;-72
2023/04/14 05:23:34;;;;;;;11.07;3.90;;;;;;;-145.18;100.00;46631.09;6150515;23;20224;-72
2023/04/14 05:25:59;;;;;;;10.23;4.10;;;;;;;-145.18;100.00;46633.06;6149626;23;20314;-71
2023/04/14 05:28:25;;;;;;;11.97;4.07;;;;;;;-145.18;100.00;46635.00;6150127;23;20270;-72
2023/04/14 05:30:50;;;;;;;10.60;4.20;;;;;;;-145.18;100.00;46638.91;6151007;23;20018;-71
2023/04/14 05:33:16;;;;;;;10.17;3.73;;;;;;;-145.18;100.00;46636.94;6151417;23;20067;-72
2023/04/14 05:35:43;;;;;;;10.97;4.13;;;;;;;-145.18;100.00;46642.81;6152290;23;20076;-71
2023/04/14 05:38:09;;;;;;;14.00;3.83;;;;;;;-145.18;100.00;46654.53;6152367;23;20364;-71
2023/04/14 05:40:34;;;;;;;12.37;4.07;;;;;;;-145.18;100.00;46654.53;6147917;23;20290;-71
2023/04/14 05:43:00;;;;;;;9.37;3.87;;;;;;;-145.18;100.00;46640.88;6145653;23;20449;-71
2023/04/14 05:45:26;;;;;;;8.40;3.73;;;;;;;-145.18;100.00;46636.94;6150977;23;20001;-72
2023/04/14 05:47:51;;;;;;;8.07;4.27;;;;;;;-145.18;100.00;46633.06;6150618;23;20068;-72
2023/04/14 05:50:16;;;;;;;8.83;3.83;;;;;;;-145.18;100.00;46631.09;6152440;23;20010;-71
2023/04/14 05:52:42;;;;;;;9.20;3.97;;;;;;;-145.18;100.00;46635.00;6151470;23;20010;-71
2023/04/14 05:55:08;;;;;;;10.83;3.93;;;;;;;-145.18;100.00;46621.31;6145610;23;20010;-72
2023/04/14 05:57:33;;;;;;;13.30;3.87;;;;;;;-145.18;100.00;46627.19;6151841;23;20060;-72
2023/04/14 05:59:59;;;;;;;10.50;4.30;;;;;;;-145.18;100.00;46574.44;6151703;23;20014;-71
2023/04/14 06:02:24;;;;;;;11.23;3.83;;;;;;;-145.18;100.00;46580.31;6150984;23;20020;-71
2023/04/14 06:04:50;;;;;;;9.13;4.37;;;;;;;-145.18;100.00;46572.50;6151532;23;20025;-72
2023/04/14 06:07:15;;;;;;;13.87;3.83;;;;;;;-145.18;100.00;46574.44;6151606;23;20010;-71
2023/04/14 06:09:41;;;;;;;16.97;4.80;;;;;;;-145.18;100.00;46568.59;6153268;23;20020;-71
2023/04/14 06:12:07;;;;;;;7.93;4.00;;;;;;;-145.18;100.00;46566.63;6154038;23;20006;-71
2023/04/14 06:14:32;;;;;;;9.10;4.63;;;;;;;-145.18;100.00;46574.44;6153366;23;20328;-71
2023/04/14 06:16:58;;;;;;;7.37;4.13;;;;;;;-145.18;100.00;46564.69;6152888;23;20093;-72
2023/04/14 06:19:23;;;;;;;13.77;4.73;;;;;;;-145.18;100.00;46568.59;6153516;23;20012;-71
2023/04/14 06:21:48;;;;;;;13.00;4.20;;;;;;;-145.18;100.00;46570.53;6153028;23;20549;-72
2023/04/14 06:24:14;;;;;;;10.30;4.57;;;;;;;-145.18;100.00;46564.69;6153439;23;20340;-71
2023/04/14 06:26:39;;;;;;;11.47;4.20;;;;;;;-145.18;100.00;46570.53;6153411;23;20020;-72
2023/04/14 06:29:06;;;;;;;9.27;4.43;;;;;;;-145.18;100.00;46562.72;6152109;23;20012;-72
2023/04/14 06:31:32;;;;;;;11.73;3.70;;;;;;;-145.18;100.00;46568.59;6153750;23;20362;-72
2023/04/14 06:33:57;;;;;;;12.97;4.17;;;;;;;-145.18;100.00;46566.63;6153159;23;20256;-72
2023/04/14 06:36:23;;;;;;;8.57;4.23;;;;;;;-145.18;100.00;46562.72;6153518;23;20259;-72
2023/04/14 06:38:48;;;;;;;10.97;4.33;;;;;;;-145.18;100.00;46560.78;6150964;23;20010;-72
2023/04/14 06:41:14;;;;;;;16.13;5.47;;;;;;;-145.18;100.00;46558.81;6152749;23;20386;-72
2023/04/14 06:43:41;;;;;;;12.67;4.20;;;;;;;-145.18;100.00;46558.81;6151971;23;20017;-72
2023/04/14 06:46:07;;;;;;;9.97;4.57;;;;;;;-145.18;100.00;46560.78;6154045;23;20327;-72
2023/04/14 06:48:32;;;;;;;10.73;4.27;;;;;;;-145.18;100.00;46560.78;6152348;23;20234;-72
2023/04/14 06:50:58;;;;;;;9.53;4.43;;;;;;;-145.18;100.00;46562.72;6153847;23;20005;-72
2023/04/14 06:53:23;;;;;;;11.33;4.27;;;;;;;-145.18;100.00;46564.69;6153551;23;20083;-72
2023/04/14 06:55:57;;;;;;;11.67;4.30;;;;;;;-145.18;100.00;46570.53;6153649;23;20087;-72
2023/04/14 06:58:24;;;;;;;10.53;4.10;;;;;;;-145.18;100.00;46570.53;6153770;23;20005;-72
2023/04/14 07:01:00;;;;;;;9.90;4.10;;;;;;;-145.18;100.00;46574.44;6153468;23;20322;-72
2023/04/14 07:03:27;;;;;;;10.03;4.40;;;;;;;-145.18;100.00;46578.34;6153208;23;20247;-72
2023/04/14 07:05:53;;;;;;;10.30;4.17;;;;;;;-145.18;100.00;46580.31;6153625;23;20234;-72
2023/04/14 07:08:19;;;;;;;11.47;4.63;;;;;;;-145.18;100.00;46574.44;6153497;23;20310;-72
2023/04/14 07:10:45;;;;;;;9.40;5.00;;;;;;;-145.18;100.00;46592.03;6153467;23;20379;-72
2023/04/14 07:13:11;;;;;;;13.60;4.90;;;;;;;-145.18;100.00;46590.06;6153547;23;20310;-72
2023/04/14 07:15:36;;;;;;;8.70;4.23;;;;;;;-145.18;100.00;46597.88;6153618;23;20009;-72
2023/04/14 07:18:01;;;;;;;13.20;4.27;;;;;;;-145.18;100.00;46597.88;6152100;23;20069;-73
2023/04/14 07:20:28;;;;;;;10.23;3.60;;;;;;;-145.18;100.00;46599.84;6152575;23;20017;-72
2023/04/14 07:22:54;;;;;;;7.77;3.17;;;;;;;-145.18;100.00;46609.59;6152695;23;20006;-72
2023/04/14 07:25:20;;;;;;;10.70;3.50;;;;;;;-145.18;100.00;46609.59;6153203;23;20235;-72
2023/04/14 07:27:46;;;;;;;8.43;3.13;;;;;;;-145.18;100.00;46619.38;6152809;23;20259;-72
2023/04/14 07:30:11;;;;;;;8.77;2.93;;;;;;;-145.18;100.00;46629.13;6153393;23;20231;-77
2023/04/14 07:32:37;;;;;;;12.53;3.30;;;;;;;-145.18;100.00;46640.88;6153660;23;20081;-77
2023/04/14 07:35:03;;;;;;;5.53;2.73;;;;;;;-145.18;100.00;46642.81;6153689;23;20427;-77
2023/04/14 07:37:29;;;;;;;8.57;3.00;;;;;;;-145.18;100.00;46656.50;6153909;23;20016;-78
2023/04/14 07:39:54;;;;;;;8.53;3.20;;;;;;;-145.18;100.00;46666.25;6153388;23;20616;-78
2023/04/14 07:42:20;;;;;;;7.83;2.87;;;;;;;-145.18;100.00;46701.41;6152577;23;20032;-78
2023/04/14 07:44:45;;;;;;;8.97;3.37;;;;;;;-145.18;100.00;46695.56;6152466;23;20072;-82
2023/04/14 07:47:11;;;;;;;7.77;2.77;;;;;;;-145.18;100.00;46719.00;6153382;23;20020;-80
2023/04/14 07:49:36;;;;;;;8.00;2.60;;;;;;;-145.18;100.00;46717.03;6152102;23;20009;-81
2023/04/14 07:52:02;;;;;;;5.77;2.47;;;;;;;-145.18;100.00;46750.25;6152700;23;20012;-79
2023/04/14 07:54:29;;;;;;;4.40;2.30;;;;;;;-145.18;100.00;46783.47;6152451;23;20079;-77
2023/04/14 07:56:55;;;;;;;8.43;2.63;;;;;;;-145.18;100.00;46767.84;6153300;23;20089;-81
2023/04/14 07:59:21;;;;;;;6.30;2.97;;;;;;;-145.18;100.00;46748.28;6153099;23;20247;-80
2023/04/14 08:01:47;;;;;;;8.57;3.07;;;;;;;-145.18;100.00;46738.53;6152789;23;20317;-78
2023/04/14 08:04:12;;;;;;;8.10;2.20;;;;;;;-145.18;100.00;46748.28;6151585;23;20080;-79
2023/04/14 08:06:37;;;;;;;12.43;3.87;;;;;;;-145.18;100.00;46756.09;6151988;23;20799;-78
2023/04/14 08:09:03;;;;;;;14.87;4.77;;;;;;;-145.18;100.00;46734.63;6152913;23;20092;-78
2023/04/14 08:11:28;;;;;;;12.93;2.80;;;;;;;-145.18;100.00;46750.25;6153004;23;20447;-77
2023/04/14 08:13:54;;;;;;;7.63;2.73;;;;;;;-145.18;100.00;46748.28;6152863;23;20038;-78
2023/04/14 08:16:20;;;;;;;5.80;2.43;;;;;;;-145.18;100.00;46783.47;6151670;23;20069;-78
2023/04/14 08:18:46;;;;;;;7.13;1.97;;;;;;;-145.18;100.00;46857.69;6151619;23;20005;-78
2023/04/14 08:21:11;;;;;;;8.23;2.07;;;;;;;-145.18;100.00;47023.72;6151806;23;20021;-79
2023/04/14 08:23:36;;;;;;;11.30;2.10;;;;;;;-145.18;100.00;47248.41;6149906;23;20261;-79
2023/04/14 08:26:03;;;;;;;7.53;2.57;;;;;;;-145.18;100.00;47330.44;6149952;23;20002;-78
2023/04/14 08:28:29;;;;;;;10.03;3.03;;;;;;;-145.18;100.00;47387.09;6151706;23;20332;-79
2023/04/14 08:30:54;;;;;;;7.53;2.53;;;;;;;-145.18;100.00;47244.50;6151688;23;20235;-80
2023/04/14 08:33:20;;;;;;;7.07;2.40;;;;;;;-145.18;100.00;47488.69;6151227;23;20013;-80
2023/04/14 08:35:45;;;;;;;10.13;2.57;;;;;;;-145.18;100.00;47498.47;6152781;23;20044;-80
2023/04/14 08:38:11;;;;;;;8.70;2.00;;;;;;;-145.18;100.00;47480.88;6150317;23;20005;-80
2023/04/14 08:40:39;;;;;;;5.73;2.07;;;;;;;-145.18;100.00;47447.66;6151787;23;20505;-79
2023/04/14 08:43:05;;;;;;;9.97;2.20;;;;;;;-145.18;100.00;47443.75;6152316;23;20427;-79
2023/04/14 08:45:33;;;;;;;8.20;1.77;;;;;;;-145.18;100.00;47457.44;6152727;23;20232;-79
2023/04/14 08:48:00;;;;;;;4.07;1.20;;;;;;;-145.18;100.00;47422.28;6152068;23;20442;-80
2023/04/14 08:50:31;;;;;;;6.20;1.50;;;;;;;-145.18;100.00;47430.09;6151450;23;20009;-80
2023/04/14 08:53:00;;;;;;;4.70;0.93;;;;;;;-145.18;100.00;47387.09;6152407;23;20363;-80
2023/04/14 08:55:26;;;;;;;4.57;1.10;;;;;;;-145.18;100.00;47398.81;6152790;23;20005;-80
2023/04/14 08:57:53;;;;;;;5.23;1.37;;;;;;;-145.18;100.00;47400.78;6152887;23;20013;-77
2023/04/14 09:00:18;;;;;;;4.13;0.90;;;;;;;-145.18;100.00;47398.81;6152549;23;20278;-77
2023/04/14 09:02:45;;;;;;;2.13;0.67;;;;;;;-145.18;100.00;47394.91;6151833;23;20021;-80
2023/04/14 09:05:12;;;;;;;6.27;1.10;;;;;;;-145.18;100.00;47414.47;6151844;23;20014;-82
2023/04/14 09:07:38;;;;;;;3.53;0.87;;;;;;;-145.18;100.00;47406.63;6152288;23;20092;-77
2023/04/14 09:10:04;;;;;;;1.93;0.70;;;;;;;-145.18;100.00;47414.47;6152072;23;20037;-77
2023/04/14 09:12:29;;;;;;;7.87;1.57;;;;;;;-145.18;100.00;47418.38;6152221;23;20009;-80
2023/04/14 09:14:57;;;;;;;4.77;1.00;;;;;;;-145.18;100.00;47396.88;6150538;23;20010;-80
2023/04/14 09:17:25;;;;;;;5.20;1.10;;;;;;;-145.18;100.00;47402.72;6152903;23;20443;-83
2023/04/14 09:19:50;;;;;;;6.37;1.27;;;;;;;-145.18;100.00;47387.09;6151948;23;20383;-80
2023/04/14 09:22:17;;;;;;;4.07;1.20;;;;;;;-145.18;100.00;47412.50;6152526;23;20013;-78
2023/04/14 09:24:43;;;;;;;6.03;1.00;;;;;;;-145.18;100.00;47406.63;6151854;23;20021;-79
2023/04/14 09:27:08;;;;;;;3.90;1.07;;;;;;;-145.18;100.00;47400.78;6152801;23;20335;-83
2023/04/14 09:29:35;;;;;;;4.77;1.20;;;;;;;-145.18;100.00;47402.72;6152049;23;20160;-84
2023/04/14 09:32:01;;;;;;;5.70;1.20;;;;;;;-145.18;100.00;47387.09;6151136;23;20033;-75
2023/04/14 09:34:26;;;;;;;4.70;1.27;;;;;;;-145.18;100.00;47387.09;6152312;23;20028;-80
2023/04/14 09:36:59;;;;;;;4.30;1.20;;;;;;;-145.18;100.00;47363.66;6152682;23;20430;-80
2023/04/14 09:39:25;;;;;;;3.93;1.23;;;;;;;-145.18;100.00;47344.13;6152655;23;20005;-79
2023/04/14 09:41:50;;;;;;;5.40;1.07;;;;;;;-145.18;100.00;47340.22;6152568;23;20096;-80
2023/04/14 09:44:15;;;;;;;4.90;1.00;;;;;;;-145.18;100.00;47330.44;6152841;23;20037;-81
2023/04/14 09:47:04;;;;;;;3.87;1.10;;;;;;;-145.18;100.00;47348.03;6151985;23;20068;-80
2023/04/14 09:49:30;;;;;;;4.63;1.13;;;;;;;-145.18;100.00;47334.34;6152880;23;20076;-80
2023/04/14 09:52:03;;;;;;;7.13;1.20;;;;;;;-145.18;100.00;47328.50;6150449;23;20430;-79
2023/04/14 09:54:29;;;;;;;2.70;0.80;;;;;;;-145.18;100.00;47334.34;6152248;23;20009;-82
2023/04/14 09:56:55;;;;;;;2.50;1.20;;;;;;;-145.18;100.00;47320.69;6152471;23;20005;-81
2023/04/14 09:59:33;;;;;;;4.27;1.17;;;;;;;-145.18;100.00;47332.41;6152739;23;20033;-81
2023/04/14 10:02:03;;;;;;;4.37;1.17;;;;;;;-145.18;100.00;47324.59;6152379;23;20068;-81
2023/04/14 10:04:29;;;;;;;7.00;0.80;;;;;;;-145.18;100.00;47312.88;6152768;23;20029;-81
2023/04/14 10:06:56;;;;;;;3.53;1.10;;;;;;;-145.18;100.00;47312.88;6152839;23;20048;-81
2023/04/14 10:09:22;;;;;;;4.53;1.23;;;;;;;-145.18;100.00;47289.41;6152835;23;20022;-81
2023/04/14 10:12:05;;;;;;;4.23;1.13;;;;;;;-145.18;100.00;47271.84;6152507;23;20006;-82
2023/04/14 10:14:32;;;;;;;4.07;0.83;;;;;;;-145.18;100.00;47326.53;6152734;23;20013;-82
2023/04/14 10:16:58;;;;;;;3.90;1.27;;;;;;;-145.18;100.00;47305.06;6152658;23;20017;-82
2023/04/14 10:19:24;;;;;;;2.37;1.10;;;;;;;-145.18;100.00;47273.78;6153247;23;20048;-83
2023/04/14 10:21:51;;;;;;;5.07;1.80;;;;;;;-145.18;100.00;47291.38;6152819;23;20387;-82
2023/04/14 10:24:18;;;;;;;3.67;1.37;;;;;;;-145.18;100.00;47334.34;6152616;23;20014;-83
2023/04/14 10:26:46;;;;;;;3.93;1.60;;;;;;;-145.18;100.00;47316.78;6152514;23;20070;-82
2023/04/14 10:29:11;;;;;;;4.43;0.83;;;;;;;-145.18;100.00;47299.19;6151275;23;20397;-83
2023/04/14 10:31:41;;;;;;;2.57;1.10;;;;;;;-145.18;100.00;47316.78;6153062;23;20010;-83
2023/04/14 10:34:11;;;;;;;2.77;1.20;;;;;;;-145.18;100.00;47332.41;6152635;23;20029;-82
2023/04/14 10:36:37;;;;;;;3.33;1.73;;;;;;;-145.18;100.00;47273.78;6152650;23;20017;-82
2023/04/14 10:39:04;;;;;;;4.33;1.10;;;;;;;-145.18;100.00;47260.13;6151492;23;20499;-82
2023/04/14 10:41:41;;;;;;;7.30;1.20;;;;;;;-145.18;100.00;47307.00;6152192;23;20016;-82
2023/04/14 10:44:22;;;;;;;3.87;1.10;;;;;;;-145.18;100.00;47318.72;6152212;23;20009;-83
2023/04/14 10:46:48;;;;;;;1.60;1.00;;;;;;;-145.18;100.00;47346.06;6151131;23;20020;-83
2023/04/14 10:49:14;;;;;;;6.80;1.20;;;;;;;-145.18;100.00;47334.34;6151602;23;20445;-83
2023/04/14 10:51:40;;;;;;;3.13;1.10;;;;;;;-145.18;100.00;47332.41;6152382;23;20005;-82
2023/04/14 10:54:15;;;;;;;2.47;1.10;;;;;;;-145.18;100.00;47318.72;6152813;23;20010;-82
2023/04/14 10:56:41;;;;;;;4.55;1.05;;;;;;;-145.18;100.00;47289.41;6154653;23;20006;-83
2023/04/14 10:59:09;;;;;;;2.50;1.00;;;;;;;-145.18;100.00;47264.03;6154420;23;20085;-83
2023/04/14 11:01:35;;;;;;;3.23;1.03;;;;;;;-145.18;100.00;47314.81;6154549;23;20382;-83
2023/04/14 11:04:17;;;;;;;4.20;1.17;;;;;;;-145.18;100.00;47316.78;6153200;23;20017;-84
2023/04/14 11:06:45;;;;;;;3.60;1.20;;;;;;;-145.18;100.00;47332.41;6153022;23;20006;-84
2023/04/14 11:09:29;;;;;;;5.10;1.10;;;;;;;-145.18;100.00;47334.34;6151123;23;20013;-81
2023/04/14 11:11:56;;;;;;;2.90;1.10;;;;;;;-145.18;100.00;47340.22;6154262;23;20093;-81